Time,TemperatureF,DewpointF,PressureIn,WindDirection,WindDirectionDegrees,WindSpeedMPH,WindSpeedGustMPH,Humidity,HourlyPrecipIn,Conditions,Clouds,dailyrainin,SolarRadiationWatts/m^2,SoftwareType,DateUTC
2013-02-06 00:00:00,39.2,32.9,30.05,NW,310,2.0,2.0,78,0.00,,,0.00,0,Wunderground v.1.15,2013-02-06 05:00:00,
2013-02-06 00:05:00,39.0,32.7,30.05,NW,310,0.0,2.0,78,0.00,,,0.00,0,Wunderground v.1.15,2013-02-06 05:05:00,
2013-02-06 00:10:00,38.9,32.6,30.05,NW,310,1.0,1.0,78,0.00,,,0.00,0,Wunderground v.1.15,2013-02-06 05:10:00,
2013-02-06 00:15:00,38.8,32.8,30.05,NW,310,0.0,1.0,79,0.00,,,0.00,0,Wunderground v.1.15,2013-02-06 05:15:00,
2013-02-06 00:20:00,38.6,32.6,30.05,NW,310,1.0,1.0,79,0.00,,,0.00,0,Wunderground v.1.15,2013-02-06 05:20:00,
2013-02-06 00:25:00,38.7,32.7,30.05,NW,310,0.0,2.0,79,0.00,,,0.00,0,Wunderground v.1.15,2013-02-06 05:25:00,
2013-02-06 00:30:00,38.6,32.6,30.05,NW,310,1.0,1.0,79,0.00,,,0.00,0,Wunderground v.1.15,2013-02-06 05:30:00,
2013-02-06 00:35:00,38.4,32.5,30.05,NW,310,1.0,2.0,79,0.00,,,0.00,0,Wunderground v.1.15,2013-02-06 05:35:00,
2013-02-06 00:40:00,37.8,32.2,30.06,NW,310,1.0,2.0,80,0.00,,,0.00,0,Wunderground v.1.15,2013-02-06 05:40:00,
2013-02-06 00:45:00,37.5,32.2,30.06,NW,310,2.0,2.0,81,0.00,,,0.00,0,Wunderground v.1.15,2013-02-06 05:45:00,
2013-02-06 00:50:00,37.4,32.1,30.06,NW,310,1.0,2.0,81,0.00,,,0.00,0,Wunderground v.1.15,2013-02-06 05:50:00,
2013-02-06 00:55:00,36.9,31.6,30.06,NW,310,2.0,2.0,81,0.00,,,0.00,0,Wunderground v.1.15,2013-02-06 05:55:00,
2013-02-06 01:00:00,37.0,32.0,30.06,NW,306,0.0,2.0,82,0.00,,,0.00,0,Wunderground v.1.15,2013-02-06 06:00:00,
2013-02-06 01:05:00,36.9,31.9,30.06,NW,326,0.0,3.0,82,0.00,,,0.00,0,Wunderground v.1.15,2013-02-06 06:05:00,
2013-02-06 01:10:00,36.2,30.9,30.07,NNW,345,0.0,0.0,81,0.00,,,0.00,0,Wunderground v.1.15,2013-02-06 06:10:00,
2013-02-06 01:15:00,35.4,30.5,30.07,NNW,345,0.0,1.0,82,0.00,,,0.00,0,Wunderground v.1.15,2013-02-06 06:15:00,
2013-02-06 01:20:00,35.5,31.1,30.07,NNW,345,0.0,0.0,84,0.00,,,0.00,0,Wunderground v.1.15,2013-02-06 06:20:00,
2013-02-06 01:25:00,36.1,31.7,30.07,North,355,2.0,3.0,84,0.00,,,0.00,0,Wunderground v.1.15,2013-02-06 06:25:00,
2013-02-06 01:30:00,36.6,31.6,30.07,North,355,1.0,1.0,82,0.00,,,0.00,0,Wunderground v.1.15,2013-02-06 06:30:00,
2013-02-06 01:35:00,36.4,31.4,30.07,North,355,0.0,2.0,82,0.00,,,0.00,0,Wunderground v.1.15,2013-02-06 06:35:00,
2013-02-06 01:40:00,36.5,31.5,30.07,NW,308,1.0,2.0,82,0.00,,,0.00,0,Wunderground v.1.15,2013-02-06 06:40:00,
2013-02-06 01:45:00,36.6,31.6,30.08,WSW,258,4.0,4.0,82,0.00,,,0.00,0,Wunderground v.1.15,2013-02-06 06:45:00,
2013-02-06 01:50:00,36.4,31.4,30.08,WSW,258,3.0,3.0,82,0.00,,,0.00,0,Wunderground v.1.15,2013-02-06 06:50:00,
2013-02-06 01:55:00,35.6,30.6,30.08,WSW,249,3.0,4.0,82,0.00,,,0.00,0,Wunderground v.1.15,2013-02-06 06:55:00,
2013-02-06 02:00:00,34.2,29.3,30.08,WSW,249,2.0,2.0,82,0.00,,,0.00,0,Wunderground v.1.15,2013-02-06 07:00:00,
2013-02-06 02:05:00,33.2,29.2,30.08,WSW,249,3.0,3.0,85,0.00,,,0.00,0,Wunderground v.1.15,2013-02-06 07:05:00,
2013-02-06 02:10:00,33.0,29.3,30.08,WSW,249,2.0,3.0,86,0.00,,,0.00,0,Wunderground v.1.15,2013-02-06 07:10:00,
2013-02-06 02:15:00,33.9,30.7,30.08,West,274,2.0,3.0,88,0.00,,,0.00,0,Wunderground v.1.15,2013-02-06 07:15:00,
2013-02-06 02:20:00,35.2,31.4,30.08,WNW,284,1.0,3.0,86,0.00,,,0.00,0,Wunderground v.1.15,2013-02-06 07:20:00,
2013-02-06 02:25:00,35.9,31.2,30.08,WNW,297,1.0,3.0,83,0.00,,,0.00,0,Wunderground v.1.15,2013-02-06 07:25:00,
2013-02-06 02:30:00,35.4,30.8,30.08,WNW,291,2.0,2.0,83,0.00,,,0.00,0,Wunderground v.1.15,2013-02-06 07:30:00,
2013-02-06 02:35:00,35.0,30.1,30.08,West,268,4.0,4.0,82,0.00,,,0.00,0,Wunderground v.1.15,2013-02-06 07:35:00,
2013-02-06 02:40:00,34.4,30.1,30.09,West,268,2.0,3.0,84,0.00,,,0.00,0,Wunderground v.1.15,2013-02-06 07:40:00,
2013-02-06 02:45:00,33.7,29.4,30.09,West,270,2.0,3.0,84,0.00,,,0.00,0,Wunderground v.1.15,2013-02-06 07:45:00,
2013-02-06 02:50:00,33.2,29.2,30.09,West,275,3.0,3.0,85,0.00,,,0.00,0,Wunderground v.1.15,2013-02-06 07:50:00,
2013-02-06 02:55:00,33.1,29.4,30.09,West,275,0.0,3.0,86,0.00,,,0.00,0,Wunderground v.1.15,2013-02-06 07:55:00,
2013-02-06 03:00:00,33.3,29.6,30.09,West,275,1.0,1.0,86,0.00,,,0.00,0,Wunderground v.1.15,2013-02-06 08:00:00,
2013-02-06 03:05:00,33.4,29.4,30.10,West,275,0.0,1.0,85,0.00,,,0.00,0,Wunderground v.1.15,2013-02-06 08:05:00,
2013-02-06 03:10:00,32.6,28.6,30.10,West,275,0.0,0.0,85,0.00,,,0.00,0,Wunderground v.1.15,2013-02-06 08:10:00,
2013-02-06 03:15:00,32.3,28.9,30.10,West,275,0.0,2.0,87,0.00,,,0.00,0,Wunderground v.1.15,2013-02-06 08:15:00,
2013-02-06 03:20:00,32.1,28.7,30.10,West,275,0.0,0.0,87,0.00,,,0.00,0,Wunderground v.1.15,2013-02-06 08:20:00,
2013-02-06 03:25:00,31.6,28.2,30.10,West,275,0.0,0.0,87,0.00,,,0.00,0,Wunderground v.1.15,2013-02-06 08:25:00,
2013-02-06 03:30:00,31.2,28.1,30.10,West,275,1.0,1.0,88,0.00,,,0.00,0,Wunderground v.1.15,2013-02-06 08:30:00,
2013-02-06 03:35:00,31.1,28.2,30.10,West,275,1.0,2.0,89,0.00,,,0.00,0,Wunderground v.1.15,2013-02-06 08:35:00,
2013-02-06 03:40:00,31.5,28.9,30.10,West,275,0.0,1.0,90,0.00,,,0.00,0,Wunderground v.1.15,2013-02-06 08:40:00,
2013-02-06 03:45:00,32.3,29.7,30.11,West,275,2.0,2.0,90,0.00,,,0.00,0,Wunderground v.1.15,2013-02-06 08:45:00,
2013-02-06 03:50:00,32.0,28.6,30.11,West,275,2.0,2.0,87,0.00,,,0.00,0,Wunderground v.1.15,2013-02-06 08:50:00,
2013-02-06 03:55:00,32.1,29.2,30.11,West,275,0.0,2.0,89,0.00,,,0.00,0,Wunderground v.1.15,2013-02-06 08:55:00,
2013-02-06 04:00:00,32.6,29.4,30.12,West,275,1.0,2.0,88,0.00,,,0.00,0,Wunderground v.1.15,2013-02-06 09:00:00,
2013-02-06 04:04:00,32.6,29.4,30.12,West,277,1.0,3.0,88,0.00,,,0.00,0,Wunderground v.1.15,2013-02-06 09:04:00,
2013-02-06 04:09:00,33.2,30.0,30.12,West,277,0.0,3.0,88,0.00,,,0.00,0,Wunderground v.1.15,2013-02-06 09:09:00,
2013-02-06 04:14:00,31.9,28.2,30.12,West,277,0.0,1.0,86,0.00,,,0.00,0,Wunderground v.1.15,2013-02-06 09:14:00,
2013-02-06 04:19:00,31.7,28.6,30.12,West,277,0.0,1.0,88,0.00,,,0.00,0,Wunderground v.1.15,2013-02-06 09:19:00,
2013-02-06 04:24:00,31.5,28.4,30.12,West,277,0.0,0.0,88,0.00,,,0.00,0,Wunderground v.1.15,2013-02-06 09:24:00,
2013-02-06 04:29:00,31.4,28.5,30.13,West,277,1.0,2.0,89,0.00,,,0.00,0,Wunderground v.1.15,2013-02-06 09:29:00,
2013-02-06 04:34:00,32.2,29.6,30.13,West,277,0.0,2.0,90,0.00,,,0.00,0,Wunderground v.1.15,2013-02-06 09:34:00,
2013-02-06 04:39:00,31.4,28.0,30.13,West,277,0.0,2.0,87,0.00,,,0.00,0,Wunderground v.1.15,2013-02-06 09:39:00,
2013-02-06 04:44:00,30.4,27.0,30.14,West,277,0.0,1.0,87,0.00,,,0.00,0,Wunderground v.1.15,2013-02-06 09:44:00,
2013-02-06 04:49:00,29.8,27.0,30.14,West,277,0.0,1.0,89,0.00,,,0.00,0,Wunderground v.1.15,2013-02-06 09:49:00,
2013-02-06 04:54:00,29.7,27.1,30.14,West,277,0.0,0.0,90,0.00,,,0.00,0,Wunderground v.1.15,2013-02-06 09:54:00,
2013-02-06 04:59:00,30.1,27.5,30.14,West,277,0.0,0.0,90,0.00,,,0.00,0,Wunderground v.1.15,2013-02-06 09:59:00,
2013-02-06 05:04:00,30.1,27.5,30.14,West,277,0.0,0.0,90,0.00,,,0.00,0,Wunderground v.1.15,2013-02-06 10:04:00,
2013-02-06 05:09:00,30.2,27.6,30.14,West,277,0.0,0.0,90,0.00,,,0.00,0,Wunderground v.1.15,2013-02-06 10:09:00,
2013-02-06 05:14:00,30.2,27.6,30.14,West,277,0.0,0.0,90,0.00,,,0.00,0,Wunderground v.1.15,2013-02-06 10:14:00,
2013-02-06 05:19:00,30.0,27.4,30.14,West,277,0.0,0.0,90,0.00,,,0.00,0,Wunderground v.1.15,2013-02-06 10:19:00,
2013-02-06 05:24:00,29.6,27.0,30.14,West,277,0.0,0.0,90,0.00,,,0.00,0,Wunderground v.1.15,2013-02-06 10:24:00,
2013-02-06 05:29:00,29.2,26.6,30.14,West,277,0.0,0.0,90,0.00,,,0.00,0,Wunderground v.1.15,2013-02-06 10:29:00,
2013-02-06 05:34:00,29.0,26.4,30.15,West,277,0.0,0.0,90,0.00,,,0.00,0,Wunderground v.1.15,2013-02-06 10:34:00,
2013-02-06 05:39:00,28.8,26.5,30.15,West,277,0.0,0.0,91,0.00,,,0.00,0,Wunderground v.1.15,2013-02-06 10:39:00,
2013-02-06 05:44:00,28.6,26.3,30.15,West,277,0.0,0.0,91,0.00,,,0.00,0,Wunderground v.1.15,2013-02-06 10:44:00,
2013-02-06 05:49:00,28.7,26.4,30.15,West,277,0.0,0.0,91,0.00,,,0.00,0,Wunderground v.1.15,2013-02-06 10:49:00,
2013-02-06 05:54:00,28.8,26.5,30.14,West,277,0.0,0.0,91,0.00,,,0.00,0,Wunderground v.1.15,2013-02-06 10:54:00,
2013-02-06 05:59:00,28.8,26.5,30.15,West,277,0.0,0.0,91,0.00,,,0.00,0,Wunderground v.1.15,2013-02-06 10:59:00,
2013-02-06 06:04:00,28.9,26.6,30.15,West,277,0.0,0.0,91,0.00,,,0.00,0,Wunderground v.1.15,2013-02-06 11:04:00,
2013-02-06 06:09:00,28.7,26.4,30.15,West,277,1.0,1.0,91,0.00,,,0.00,0,Wunderground v.1.15,2013-02-06 11:09:00,
2013-02-06 06:14:00,28.5,26.2,30.16,West,277,1.0,3.0,91,0.00,,,0.00,0,Wunderground v.1.15,2013-02-06 11:14:00,
2013-02-06 06:19:00,28.5,26.5,30.16,West,277,1.0,3.0,92,0.00,,,0.00,0,Wunderground v.1.15,2013-02-06 11:19:00,
2013-02-06 06:24:00,28.4,26.1,30.16,West,277,0.0,2.0,91,0.00,,,0.00,0,Wunderground v.1.15,2013-02-06 11:24:00,
2013-02-06 06:29:00,28.1,25.5,30.16,West,277,0.0,2.0,90,0.00,,,0.00,0,Wunderground v.1.15,2013-02-06 11:29:00,
2013-02-06 06:34:00,28.0,25.7,30.17,West,277,3.0,3.0,91,0.00,,,0.00,0,Wunderground v.1.15,2013-02-06 11:34:00,
2013-02-06 06:39:00,27.9,25.6,30.17,West,277,0.0,3.0,91,0.00,,,0.00,0,Wunderground v.1.15,2013-02-06 11:39:00,
2013-02-06 06:44:00,28.1,25.8,30.17,West,277,0.0,1.0,91,0.00,,,0.00,0,Wunderground v.1.15,2013-02-06 11:44:00,
2013-02-06 06:49:00,28.0,25.7,30.18,West,277,0.0,0.0,91,0.00,,,0.00,0,Wunderground v.1.15,2013-02-06 11:49:00,
2013-02-06 06:54:00,27.5,25.2,30.18,West,277,0.0,0.0,91,0.00,,,0.00,0,Wunderground v.1.15,2013-02-06 11:54:00,
2013-02-06 06:59:00,27.1,24.8,30.18,West,277,0.0,0.0,91,0.00,,,0.00,0,Wunderground v.1.15,2013-02-06 11:59:00,
2013-02-06 07:04:00,27.1,24.8,30.18,West,277,0.0,0.0,91,0.00,,,0.00,0,Wunderground v.1.15,2013-02-06 12:04:00,
2013-02-06 07:09:00,27.3,25.3,30.18,West,277,0.0,0.0,92,0.00,,,0.00,0,Wunderground v.1.15,2013-02-06 12:09:00,
2013-02-06 07:14:00,27.5,25.5,30.19,West,277,0.0,0.0,92,0.00,,,0.00,0,Wunderground v.1.15,2013-02-06 12:14:00,
2013-02-06 07:19:00,27.1,24.8,30.19,West,277,0.0,0.0,91,0.00,,,0.00,0,Wunderground v.1.15,2013-02-06 12:19:00,
2013-02-06 07:24:00,27.1,24.8,30.19,West,277,0.0,0.0,91,0.00,,,0.00,0,Wunderground v.1.15,2013-02-06 12:24:00,
2013-02-06 07:29:00,27.0,24.7,30.19,West,277,0.0,0.0,91,0.00,,,0.00,0,Wunderground v.1.15,2013-02-06 12:29:00,
2013-02-06 07:35:00,27.4,25.4,30.19,West,277,0.0,0.0,92,0.00,,,0.00,0,Wunderground v.1.15,2013-02-06 12:35:00,
2013-02-06 07:40:00,27.6,25.3,30.19,West,277,0.0,0.0,91,0.00,,,0.00,0,Wunderground v.1.15,2013-02-06 12:40:00,
2013-02-06 07:45:00,27.8,25.5,30.19,West,277,0.0,0.0,91,0.00,,,0.00,7,Wunderground v.1.15,2013-02-06 12:45:00,
2013-02-06 07:50:00,28.1,25.8,30.20,West,277,0.0,0.0,91,0.00,,,0.00,11,Wunderground v.1.15,2013-02-06 12:50:00,
2013-02-06 07:55:00,28.0,25.7,30.20,West,277,0.0,0.0,91,0.00,,,0.00,14,Wunderground v.1.15,2013-02-06 12:55:00,
2013-02-06 08:00:00,28.3,26.0,30.21,West,277,0.0,0.0,91,0.00,,,0.00,19,Wunderground v.1.15,2013-02-06 13:00:00,
2013-02-06 08:05:00,28.5,26.2,30.21,West,277,0.0,0.0,91,0.00,,,0.00,23,Wunderground v.1.15,2013-02-06 13:05:00,
2013-02-06 08:10:00,28.8,26.5,30.21,West,277,0.0,0.0,91,0.00,,,0.00,28,Wunderground v.1.15,2013-02-06 13:10:00,
2013-02-06 08:15:00,28.7,26.4,30.21,West,277,0.0,0.0,91,0.00,,,0.00,35,Wunderground v.1.15,2013-02-06 13:15:00,
2013-02-06 08:20:00,29.1,26.8,30.22,West,277,0.0,0.0,91,0.00,,,0.00,37,Wunderground v.1.15,2013-02-06 13:20:00,
2013-02-06 08:25:00,29.6,27.3,30.22,West,277,1.0,2.0,91,0.00,,,0.00,42,Wunderground v.1.15,2013-02-06 13:25:00,
2013-02-06 08:30:00,30.2,27.9,30.23,West,277,1.0,1.0,91,0.00,,,0.00,51,Wunderground v.1.15,2013-02-06 13:30:00,
2013-02-06 08:35:00,30.9,28.6,30.23,West,277,0.0,1.0,91,0.00,,,0.00,72,Wunderground v.1.15,2013-02-06 13:35:00,
2013-02-06 08:40:00,30.8,28.5,30.22,West,277,1.0,2.0,91,0.00,,,0.00,72,Wunderground v.1.15,2013-02-06 13:40:00,
2013-02-06 08:45:00,30.7,28.4,30.22,West,277,0.0,2.0,91,0.00,,,0.00,83,Wunderground v.1.15,2013-02-06 13:45:00,
2013-02-06 08:50:00,30.8,28.5,30.23,West,277,1.0,1.0,91,0.00,,,0.00,107,Wunderground v.1.15,2013-02-06 13:50:00,
2013-02-06 08:55:00,31.1,28.8,30.23,West,280,2.0,2.0,91,0.00,,,0.00,91,Wunderground v.1.15,2013-02-06 13:55:00,
2013-02-06 09:00:00,31.3,29.0,30.23,West,281,1.0,1.0,91,0.00,,,0.00,91,Wunderground v.1.15,2013-02-06 14:00:00,
2013-02-06 09:05:00,31.5,29.2,30.23,NNE,22,2.0,3.0,91,0.00,,,0.00,100,Wunderground v.1.15,2013-02-06 14:05:00,
2013-02-06 09:10:00,31.6,29.3,30.23,NNE,32,2.0,2.0,91,0.00,,,0.00,109,Wunderground v.1.15,2013-02-06 14:10:00,
2013-02-06 09:15:00,31.7,29.4,30.24,NE,37,1.0,2.0,91,0.00,,,0.00,132,Wunderground v.1.15,2013-02-06 14:15:00,
2013-02-06 09:20:00,31.7,29.4,30.23,NE,37,0.0,1.0,91,0.00,,,0.00,153,Wunderground v.1.15,2013-02-06 14:20:00,
2013-02-06 09:25:00,32.0,29.4,30.23,NE,37,1.0,2.0,90,0.00,,,0.00,193,Wunderground v.1.15,2013-02-06 14:25:00,
2013-02-06 09:30:00,32.4,29.8,30.23,NE,38,0.0,1.0,90,0.00,,,0.00,200,Wunderground v.1.15,2013-02-06 14:30:00,
2013-02-06 09:35:00,33.3,30.7,30.23,NE,41,1.0,2.0,90,0.00,,,0.00,336,Wunderground v.1.15,2013-02-06 14:35:00,
2013-02-06 09:40:00,34.3,31.4,30.23,ENE,61,2.0,2.0,89,0.00,,,0.00,225,Wunderground v.1.15,2013-02-06 14:40:00,
2013-02-06 09:45:00,35.1,31.9,30.23,ESE,106,2.0,3.0,88,0.00,,,0.00,232,Wunderground v.1.15,2013-02-06 14:45:00,
2013-02-06 09:50:00,35.6,31.8,30.24,East,91,3.0,5.0,86,0.00,,,0.00,221,Wunderground v.1.15,2013-02-06 14:50:00,
2013-02-06 09:55:00,35.9,31.5,30.24,East,95,7.0,9.0,84,0.00,,,0.00,260,Wunderground v.1.15,2013-02-06 14:55:00,
2013-02-06 10:00:00,35.7,31.0,30.23,ENE,71,7.0,9.0,83,0.00,,,0.00,276,Wunderground v.1.15,2013-02-06 15:00:00,
2013-02-06 10:05:00,35.8,30.8,30.23,East,92,7.0,10.0,82,0.00,,,0.00,239,Wunderground v.1.15,2013-02-06 15:05:00,
2013-02-06 10:10:00,35.9,30.9,30.24,East,83,6.0,7.0,82,0.00,,,0.00,264,Wunderground v.1.15,2013-02-06 15:10:00,
2013-02-06 10:15:00,35.8,30.8,30.24,East,91,6.0,10.0,82,0.00,,,0.00,227,Wunderground v.1.15,2013-02-06 15:15:00,
2013-02-06 10:20:00,35.7,30.7,30.25,East,86,7.0,7.0,82,0.00,,,0.00,207,Wunderground v.1.15,2013-02-06 15:20:00,
2013-02-06 10:25:00,35.9,30.9,30.25,ENE,78,1.0,7.0,82,0.00,,,0.00,239,Wunderground v.1.15,2013-02-06 15:25:00,
2013-02-06 10:30:00,35.9,30.6,30.25,ENE,75,2.0,7.0,81,0.00,,,0.00,236,Wunderground v.1.15,2013-02-06 15:30:00,
2013-02-06 10:35:00,35.9,30.3,30.25,East,82,3.0,8.0,80,0.00,,,0.00,227,Wunderground v.1.15,2013-02-06 15:35:00,
2013-02-06 10:40:00,36.3,31.0,30.26,East,91,6.0,7.0,81,0.00,,,0.00,250,Wunderground v.1.15,2013-02-06 15:40:00,
2013-02-06 10:45:00,36.5,31.2,30.26,ENE,76,4.0,8.0,81,0.00,,,0.00,265,Wunderground v.1.15,2013-02-06 15:45:00,
2013-02-06 10:50:00,36.7,31.1,30.26,ENE,76,1.0,4.0,80,0.00,,,0.00,257,Wunderground v.1.15,2013-02-06 15:50:00,
2013-02-06 10:55:00,37.1,31.8,30.26,East,91,5.0,5.0,81,0.00,,,0.00,302,Wunderground v.1.15,2013-02-06 15:55:00,
2013-02-06 11:00:00,37.3,32.0,30.26,East,82,5.0,7.0,81,0.00,,,0.00,420,Wunderground v.1.15,2013-02-06 16:00:00,
2013-02-06 11:05:00,37.3,32.0,30.25,East,80,8.0,8.0,81,0.00,,,0.00,380,Wunderground v.1.15,2013-02-06 16:05:00,
2013-02-06 11:10:00,37.6,32.0,30.25,NE,52,3.0,8.0,80,0.00,,,0.00,425,Wunderground v.1.15,2013-02-06 16:10:00,
2013-02-06 11:15:00,38.2,32.3,30.25,ENE,67,5.0,9.0,79,0.00,,,0.00,408,Wunderground v.1.15,2013-02-06 16:15:00,
2013-02-06 11:20:00,37.9,31.7,30.25,East,84,7.0,7.0,78,0.00,,,0.00,308,Wunderground v.1.15,2013-02-06 16:20:00,
2013-02-06 11:25:00,38.2,31.9,30.25,ENE,63,7.0,8.0,78,0.00,,,0.00,415,Wunderground v.1.15,2013-02-06 16:25:00,
2013-02-06 11:30:00,38.5,32.6,30.25,East,80,8.0,8.0,79,0.00,,,0.00,343,Wunderground v.1.15,2013-02-06 16:30:00,
2013-02-06 11:35:00,38.2,31.9,30.25,ENE,67,0.0,8.0,78,0.00,,,0.00,297,Wunderground v.1.15,2013-02-06 16:35:00,
2013-02-06 11:40:00,38.0,31.4,30.25,ENE,75,4.0,9.0,77,0.00,,,0.00,251,Wunderground v.1.15,2013-02-06 16:40:00,
2013-02-06 11:45:00,38.2,32.3,30.25,East,99,3.0,9.0,79,0.00,,,0.00,332,Wunderground v.1.15,2013-02-06 16:45:00,
2013-02-06 11:50:00,38.9,32.6,30.26,ENE,72,3.0,6.0,78,0.00,,,0.00,290,Wunderground v.1.15,2013-02-06 16:50:00,
2013-02-06 11:56:00,38.4,31.5,30.26,East,88,1.0,8.0,76,0.00,,,0.00,325,Wunderground v.1.15,2013-02-06 16:56:00,
2013-02-06 12:01:00,38.8,31.9,30.26,ENE,78,3.0,3.0,76,0.00,,,0.00,338,Wunderground v.1.15,2013-02-06 17:01:00,
2013-02-06 12:06:00,38.6,31.7,30.26,SE,140,0.0,8.0,76,0.00,,,0.00,306,Wunderground v.1.15,2013-02-06 17:06:00,
2013-02-06 12:11:00,39.2,32.3,30.25,ENE,61,3.0,8.0,76,0.00,,,0.00,360,Wunderground v.1.15,2013-02-06 17:11:00,
2013-02-06 12:16:00,39.2,31.9,30.26,NE,40,4.0,8.0,75,0.00,,,0.00,302,Wunderground v.1.15,2013-02-06 17:16:00,
2013-02-06 12:21:00,39.8,32.8,30.25,ENE,57,0.0,3.0,76,0.00,,,0.00,290,Wunderground v.1.15,2013-02-06 17:21:00,
2013-02-06 12:26:00,40.6,32.6,30.25,NNE,31,0.0,3.0,73,0.00,,,0.00,311,Wunderground v.1.15,2013-02-06 17:26:00,
2013-02-06 12:31:00,40.7,32.4,30.25,WNW,284,0.0,2.0,72,0.00,,,0.00,285,Wunderground v.1.15,2013-02-06 17:31:00,
2013-02-06 12:36:00,41.2,32.9,30.25,NW,311,3.0,3.0,72,0.00,,,0.00,316,Wunderground v.1.15,2013-02-06 17:36:00,
2013-02-06 12:41:00,41.1,32.8,30.25,NW,317,2.0,4.0,72,0.00,,,0.00,332,Wunderground v.1.15,2013-02-06 17:41:00,
2013-02-06 12:46:00,41.1,32.4,30.25,NW,311,1.0,4.0,71,0.00,,,0.00,325,Wunderground v.1.15,2013-02-06 17:46:00,
2013-02-06 12:51:00,41.5,33.1,30.24,North,355,3.0,4.0,72,0.00,,,0.00,338,Wunderground v.1.15,2013-02-06 17:51:00,
2013-02-06 12:56:00,41.6,33.2,30.24,NE,41,2.0,4.0,72,0.00,,,0.00,330,Wunderground v.1.15,2013-02-06 17:56:00,
2013-02-06 13:01:00,40.6,32.3,30.25,West,265,2.0,4.0,72,0.00,,,0.00,295,Wunderground v.1.15,2013-02-06 18:01:00,
2013-02-06 13:06:00,41.8,32.7,30.25,WNW,285,1.0,5.0,70,0.00,,,0.00,316,Wunderground v.1.15,2013-02-06 18:06:00,
2013-02-06 13:11:00,42.0,32.6,30.24,WNW,300,0.0,2.0,69,0.00,,,0.00,285,Wunderground v.1.15,2013-02-06 18:11:00,
2013-02-06 13:16:00,42.3,33.2,30.23,West,263,3.0,5.0,70,0.00,,,0.00,279,Wunderground v.1.15,2013-02-06 18:16:00,
2013-02-06 13:21:00,41.5,32.8,30.24,West,263,2.0,3.0,71,0.00,,,0.00,320,Wunderground v.1.15,2013-02-06 18:21:00,
2013-02-06 13:26:00,42.2,33.5,30.23,WSW,241,0.0,3.0,71,0.00,,,0.00,297,Wunderground v.1.15,2013-02-06 18:26:00,
2013-02-06 13:31:00,42.5,33.0,30.23,NNW,336,0.0,2.0,69,0.00,,,0.00,294,Wunderground v.1.15,2013-02-06 18:31:00,
2013-02-06 13:36:00,42.5,33.0,30.23,NW,321,0.0,2.0,69,0.00,,,0.00,378,Wunderground v.1.15,2013-02-06 18:36:00,
2013-02-06 13:41:00,41.9,32.8,30.23,ENE,59,2.0,5.0,70,0.00,,,0.00,851,Wunderground v.1.15,2013-02-06 18:41:00,
2013-02-06 13:46:00,42.2,33.1,30.23,NE,48,2.0,5.0,70,0.00,,,0.00,274,Wunderground v.1.15,2013-02-06 18:46:00,
2013-02-06 13:51:00,42.6,33.9,30.22,NE,40,4.0,4.0,71,0.00,,,0.00,392,Wunderground v.1.15,2013-02-06 18:51:00,
2013-02-06 13:56:00,42.7,33.9,30.23,ENE,65,4.0,5.0,71,0.00,,,0.00,744,Wunderground v.1.15,2013-02-06 18:56:00,
2013-02-06 14:01:00,43.2,34.1,30.23,NE,42,2.0,4.0,70,0.00,,,0.00,258,Wunderground v.1.15,2013-02-06 19:01:00,
2013-02-06 14:06:00,43.4,33.5,30.23,North,5,1.0,5.0,68,0.00,,,0.00,246,Wunderground v.1.15,2013-02-06 19:06:00,
2013-02-06 14:11:00,43.1,33.6,30.23,NNW,327,4.0,4.0,69,0.00,,,0.00,227,Wunderground v.1.15,2013-02-06 19:11:00,
2013-02-06 14:16:00,43.8,33.9,30.22,NNE,33,5.0,6.0,68,0.00,,,0.00,654,Wunderground v.1.15,2013-02-06 19:16:00,
2013-02-06 14:21:00,44.1,33.5,30.22,NNW,336,2.0,4.0,66,0.00,,,0.00,575,Wunderground v.1.15,2013-02-06 19:21:00,
2013-02-06 14:26:00,43.9,33.3,30.22,North,360,3.0,6.0,66,0.00,,,0.00,330,Wunderground v.1.15,2013-02-06 19:26:00,
2013-02-06 14:31:00,44.1,33.5,30.22,NNE,13,0.0,3.0,66,0.00,,,0.00,638,Wunderground v.1.15,2013-02-06 19:31:00,
2013-02-06 14:36:00,43.4,33.2,30.22,NE,55,4.0,9.0,67,0.00,,,0.00,241,Wunderground v.1.15,2013-02-06 19:36:00,
2013-02-06 14:41:00,42.7,33.2,30.22,East,91,5.0,7.0,69,0.00,,,0.00,605,Wunderground v.1.15,2013-02-06 19:41:00,
2013-02-06 14:46:00,42.9,33.4,30.22,East,91,3.0,8.0,69,0.00,,,0.00,211,Wunderground v.1.15,2013-02-06 19:46:00,
2013-02-06 14:51:00,43.1,33.3,30.22,ENE,62,5.0,6.0,68,0.00,,,0.00,510,Wunderground v.1.15,2013-02-06 19:51:00,
2013-02-06 14:56:00,43.1,33.3,30.23,East,83,0.0,6.0,68,0.00,,,0.00,538,Wunderground v.1.15,2013-02-06 19:56:00,
2013-02-06 15:01:00,43.7,34.2,30.23,NE,49,3.0,7.0,69,0.00,,,0.00,527,Wunderground v.1.15,2013-02-06 20:01:00,
2013-02-06 15:06:00,43.6,33.4,30.23,ENE,71,1.0,7.0,67,0.00,,,0.00,478,Wunderground v.1.15,2013-02-06 20:06:00,
2013-02-06 15:11:00,43.8,33.6,30.22,ENE,67,2.0,3.0,67,0.00,,,0.00,489,Wunderground v.1.15,2013-02-06 20:11:00,
2013-02-06 15:16:00,44.1,33.8,30.23,SE,140,4.0,5.0,67,0.00,,,0.00,457,Wunderground v.1.15,2013-02-06 20:16:00,
2013-02-06 15:21:00,44.2,33.6,30.23,East,90,3.0,3.0,66,0.00,,,0.00,462,Wunderground v.1.15,2013-02-06 20:21:00,
2013-02-06 15:26:00,44.4,33.7,30.23,NNE,27,1.0,5.0,66,0.00,,,0.00,445,Wunderground v.1.15,2013-02-06 20:26:00,
2013-02-06 15:31:00,44.5,33.8,30.23,ENE,69,2.0,3.0,66,0.00,,,0.00,415,Wunderground v.1.15,2013-02-06 20:31:00,
2013-02-06 15:36:00,44.8,34.1,30.23,NNE,27,1.0,3.0,66,0.00,,,0.00,376,Wunderground v.1.15,2013-02-06 20:36:00,
2013-02-06 15:41:00,45.2,34.1,30.23,North,355,1.0,2.0,65,0.00,,,0.00,376,Wunderground v.1.15,2013-02-06 20:41:00,
2013-02-06 15:46:00,45.4,33.9,30.23,NNE,13,0.0,2.0,64,0.00,,,0.00,297,Wunderground v.1.15,2013-02-06 20:46:00,
2013-02-06 15:51:00,44.6,33.6,30.22,ENE,66,2.0,2.0,65,0.00,,,0.00,341,Wunderground v.1.15,2013-02-06 20:51:00,
2013-02-06 15:56:00,44.5,33.5,30.23,West,279,2.0,3.0,65,0.00,,,0.00,346,Wunderground v.1.15,2013-02-06 20:56:00,
2013-02-06 16:01:00,45.4,33.9,30.23,NNW,337,0.0,4.0,64,0.00,,,0.00,334,Wunderground v.1.15,2013-02-06 21:01:00,
2013-02-06 16:06:00,45.0,33.5,30.22,SSE,164,0.0,4.0,64,0.00,,,0.00,283,Wunderground v.1.15,2013-02-06 21:06:00,
2013-02-06 16:11:00,44.8,34.1,30.22,NE,39,7.0,8.0,66,0.00,,,0.00,309,Wunderground v.1.15,2013-02-06 21:11:00,
2013-02-06 16:16:00,44.6,33.6,30.22,North,5,4.0,8.0,65,0.00,,,0.00,294,Wunderground v.1.15,2013-02-06 21:16:00,
2013-02-06 16:21:00,44.9,33.8,30.22,NE,41,5.0,7.0,65,0.00,,,0.00,278,Wunderground v.1.15,2013-02-06 21:21:00,
2013-02-06 16:26:00,44.9,33.8,30.22,NE,53,4.0,7.0,65,0.00,,,0.00,260,Wunderground v.1.15,2013-02-06 21:26:00,
2013-02-06 16:31:00,44.6,33.9,30.22,NE,53,2.0,4.0,66,0.00,,,0.00,246,Wunderground v.1.15,2013-02-06 21:31:00,
2013-02-06 16:37:00,44.4,33.7,30.22,NE,38,1.0,5.0,66,0.00,,,0.00,227,Wunderground v.1.15,2013-02-06 21:37:00,
2013-02-06 16:42:00,44.6,33.9,30.22,NE,38,3.0,3.0,66,0.00,,,0.00,214,Wunderground v.1.15,2013-02-06 21:42:00,
2013-02-06 16:47:00,44.6,33.6,30.22,NNE,28,4.0,5.0,65,0.00,,,0.00,200,Wunderground v.1.15,2013-02-06 21:47:00,
2013-02-06 16:52:00,44.8,33.7,30.22,North,360,3.0,4.0,65,0.00,,,0.00,181,Wunderground v.1.15,2013-02-06 21:52:00,
2013-02-06 16:57:00,45.1,34.0,30.22,NE,46,3.0,4.0,65,0.00,,,0.00,160,Wunderground v.1.15,2013-02-06 21:57:00,
2013-02-06 17:02:00,44.7,33.6,30.22,East,85,0.0,2.0,65,0.00,,,0.00,144,Wunderground v.1.15,2013-02-06 22:02:00,
2013-02-06 17:07:00,44.8,34.1,30.22,ENE,64,1.0,3.0,66,0.00,,,0.00,130,Wunderground v.1.15,2013-02-06 22:07:00,
2013-02-06 17:12:00,44.6,33.9,30.22,ENE,65,5.0,8.0,66,0.00,,,0.00,114,Wunderground v.1.15,2013-02-06 22:12:00,
2013-02-06 17:17:00,43.9,33.6,30.21,East,82,9.0,10.0,67,0.00,,,0.00,95,Wunderground v.1.15,2013-02-06 22:17:00,
2013-02-06 17:22:00,43.5,33.3,30.21,ENE,69,7.0,12.0,67,0.00,,,0.00,81,Wunderground v.1.15,2013-02-06 22:22:00,
2013-02-06 17:27:00,43.3,33.1,30.20,ENE,67,7.0,12.0,67,0.00,,,0.00,69,Wunderground v.1.15,2013-02-06 22:27:00,
2013-02-06 17:32:00,43.1,33.3,30.20,East,84,6.0,10.0,68,0.00,,,0.00,53,Wunderground v.1.15,2013-02-06 22:32:00,
2013-02-06 17:37:00,42.9,33.1,30.21,ENE,57,3.0,10.0,68,0.00,,,0.00,40,Wunderground v.1.15,2013-02-06 22:37:00,
2013-02-06 17:42:00,42.9,33.1,30.21,ENE,69,4.0,6.0,68,0.00,,,0.00,32,Wunderground v.1.15,2013-02-06 22:42:00,
2013-02-06 17:47:00,42.7,32.9,30.21,NE,53,5.0,8.0,68,0.00,,,0.00,25,Wunderground v.1.15,2013-02-06 22:47:00,
2013-02-06 17:52:00,42.5,33.0,30.21,ENE,67,5.0,8.0,69,0.00,,,0.00,16,Wunderground v.1.15,2013-02-06 22:52:00,
2013-02-06 17:57:00,42.3,32.8,30.21,ENE,61,3.0,8.0,69,0.00,,,0.00,11,Wunderground v.1.15,2013-02-06 22:57:00,
2013-02-06 18:02:00,42.0,32.6,30.21,ENE,74,3.0,7.0,69,0.00,,,0.00,7,Wunderground v.1.15,2013-02-06 23:02:00,
2013-02-06 18:07:00,41.8,32.7,30.21,ENE,73,3.0,7.0,70,0.00,,,0.00,5,Wunderground v.1.15,2013-02-06 23:07:00,
2013-02-06 18:12:00,41.3,32.6,30.21,ENE,77,3.0,5.0,71,0.00,,,0.00,0,Wunderground v.1.15,2013-02-06 23:12:00,
2013-02-06 18:17:00,41.3,32.6,30.22,ENE,72,2.0,7.0,71,0.00,,,0.00,0,Wunderground v.1.15,2013-02-06 23:17:00,
2013-02-06 18:22:00,41.0,32.3,30.21,ENE,72,2.0,4.0,71,0.00,,,0.00,0,Wunderground v.1.15,2013-02-06 23:22:00,
2013-02-06 18:27:00,40.9,32.6,30.21,ENE,62,5.0,7.0,72,0.00,,,0.00,0,Wunderground v.1.15,2013-02-06 23:27:00,
2013-02-06 18:32:00,40.6,32.3,30.21,ENE,74,2.0,8.0,72,0.00,,,0.00,0,Wunderground v.1.15,2013-02-06 23:32:00,
2013-02-06 18:37:00,40.2,31.9,30.21,ENE,59,5.0,8.0,72,0.00,,,0.00,0,Wunderground v.1.15,2013-02-06 23:37:00,
2013-02-06 18:42:00,40.1,32.1,30.21,ENE,71,4.0,8.0,73,0.00,,,0.00,0,Wunderground v.1.15,2013-02-06 23:42:00,
2013-02-06 18:47:00,40.0,32.0,30.21,ENE,65,5.0,8.0,73,0.00,,,0.00,0,Wunderground v.1.15,2013-02-06 23:47:00,
2013-02-06 18:52:00,39.7,31.8,30.21,ENE,67,4.0,7.0,73,0.00,,,0.00,0,Wunderground v.1.15,2013-02-06 23:52:00,
2013-02-06 18:57:00,39.6,31.7,30.22,ENE,59,7.0,7.0,73,0.00,,,0.00,0,Wunderground v.1.15,2013-02-06 23:57:00,
2013-02-06 19:02:00,39.3,31.7,30.22,ENE,64,5.0,7.0,74,0.00,,,0.00,0,Wunderground v.1.15,2013-02-07 00:02:00,
2013-02-06 19:07:00,39.2,31.6,30.22,ENE,66,4.0,7.0,74,0.00,,,0.00,0,Wunderground v.1.15,2013-02-07 00:07:00,
2013-02-06 19:12:00,39.0,31.7,30.22,ENE,74,4.0,5.0,75,0.00,,,0.00,0,Wunderground v.1.15,2013-02-07 00:12:00,
2013-02-06 19:17:00,38.9,31.6,30.22,ENE,74,5.0,7.0,75,0.00,,,0.00,0,Wunderground v.1.15,2013-02-07 00:17:00,
2013-02-06 19:22:00,38.8,31.6,30.22,ENE,73,4.0,7.0,75,0.00,,,0.00,0,Wunderground v.1.15,2013-02-07 00:22:00,
2013-02-06 19:27:00,38.8,31.6,30.22,ENE,70,3.0,7.0,75,0.00,,,0.00,0,Wunderground v.1.15,2013-02-07 00:27:00,
2013-02-06 19:32:00,38.6,31.4,30.23,NE,42,2.0,4.0,75,0.00,,,0.00,0,Wunderground v.1.15,2013-02-07 00:32:00,
2013-02-06 19:37:00,38.5,31.3,30.24,NE,44,2.0,4.0,75,0.00,,,0.00,0,Wunderground v.1.15,2013-02-07 00:37:00,
2013-02-06 19:42:00,38.4,31.2,30.23,ENE,63,3.0,4.0,75,0.00,,,0.00,0,Wunderground v.1.15,2013-02-07 00:42:00,
2013-02-06 19:47:00,38.2,31.3,30.23,East,81,2.0,4.0,76,0.00,,,0.00,0,Wunderground v.1.15,2013-02-07 00:47:00,
2013-02-06 19:52:00,37.9,31.0,30.23,East,80,2.0,3.0,76,0.00,,,0.00,0,Wunderground v.1.15,2013-02-07 00:52:00,
2013-02-06 19:57:00,37.8,31.2,30.23,East,80,2.0,3.0,77,0.00,,,0.00,0,Wunderground v.1.15,2013-02-07 00:57:00,
2013-02-06 20:02:00,37.7,31.1,30.23,ENE,74,2.0,3.0,77,0.00,,,0.00,0,Wunderground v.1.15,2013-02-07 01:02:00,
2013-02-06 20:07:00,37.5,30.9,30.23,ENE,74,1.0,3.0,77,0.00,,,0.00,0,Wunderground v.1.15,2013-02-07 01:07:00,
2013-02-06 20:12:00,37.4,31.2,30.23,ENE,74,4.0,4.0,78,0.00,,,0.00,0,Wunderground v.1.15,2013-02-07 01:12:00,
2013-02-06 20:17:00,37.6,31.0,30.23,ENE,65,3.0,5.0,77,0.00,,,0.00,0,Wunderground v.1.15,2013-02-07 01:17:00,
2013-02-06 20:22:00,37.5,30.9,30.23,ENE,69,3.0,3.0,77,0.00,,,0.00,0,Wunderground v.1.15,2013-02-07 01:22:00,
2013-02-06 20:27:00,37.4,30.8,30.23,ENE,68,1.0,3.0,77,0.00,,,0.00,0,Wunderground v.1.15,2013-02-07 01:27:00,
2013-02-06 20:32:00,37.3,30.7,30.22,ENE,70,1.0,3.0,77,0.00,,,0.00,0,Wunderground v.1.15,2013-02-07 01:32:00,
2013-02-06 20:37:00,37.0,30.8,30.22,East,90,2.0,6.0,78,0.00,,,0.00,0,Wunderground v.1.15,2013-02-07 01:37:00,
2013-02-06 20:42:00,37.0,30.8,30.22,East,88,2.0,7.0,78,0.00,,,0.00,0,Wunderground v.1.15,2013-02-07 01:42:00,
2013-02-06 20:47:00,36.8,30.6,30.22,East,84,3.0,7.0,78,0.00,,,0.00,0,Wunderground v.1.15,2013-02-07 01:47:00,
2013-02-06 20:52:00,36.6,30.7,30.22,ENE,78,2.0,3.0,79,0.00,,,0.00,0,Wunderground v.1.15,2013-02-07 01:52:00,
2013-02-06 20:57:00,36.7,30.8,30.22,ENE,77,2.0,5.0,79,0.00,,,0.00,0,Wunderground v.1.15,2013-02-07 01:57:00,
2013-02-06 21:02:00,36.9,30.7,30.22,ENE,78,2.0,5.0,78,0.00,,,0.00,0,Wunderground v.1.15,2013-02-07 02:02:00,
2013-02-06 21:07:00,36.5,30.6,30.22,East,81,2.0,5.0,79,0.00,,,0.00,0,Wunderground v.1.15,2013-02-07 02:07:00,
2013-02-06 21:13:00,36.4,30.5,30.22,ENE,74,3.0,5.0,79,0.00,,,0.00,0,Wunderground v.1.15,2013-02-07 02:13:00,
2013-02-06 21:18:00,36.6,30.7,30.22,ENE,71,3.0,6.0,79,0.00,,,0.00,0,Wunderground v.1.15,2013-02-07 02:18:00,
2013-02-06 21:23:00,36.9,30.7,30.23,East,92,3.0,7.0,78,0.00,,,0.00,0,Wunderground v.1.15,2013-02-07 02:23:00,
2013-02-06 21:28:00,36.7,30.5,30.24,ESE,111,4.0,8.0,78,0.00,,,0.00,0,Wunderground v.1.15,2013-02-07 02:28:00,
2013-02-06 21:33:00,36.6,30.4,30.24,ENE,63,2.0,7.0,78,0.00,,,0.00,0,Wunderground v.1.15,2013-02-07 02:33:00,
2013-02-06 21:38:00,36.7,30.5,30.24,East,93,5.0,7.0,78,0.00,,,0.00,0,Wunderground v.1.15,2013-02-07 02:38:00,
2013-02-06 21:43:00,36.4,30.5,30.24,ENE,74,4.0,6.0,79,0.00,,,0.00,0,Wunderground v.1.15,2013-02-07 02:43:00,
2013-02-06 21:48:00,36.2,30.3,30.23,East,79,3.0,7.0,79,0.00,,,0.00,0,Wunderground v.1.15,2013-02-07 02:48:00,
2013-02-06 21:53:00,36.3,30.4,30.23,East,86,1.0,7.0,79,0.00,,,0.00,0,Wunderground v.1.15,2013-02-07 02:53:00,
2013-02-06 21:58:00,36.2,30.3,30.23,East,87,3.0,8.0,79,0.00,,,0.00,0,Wunderground v.1.15,2013-02-07 02:58:00,
2013-02-06 22:03:00,36.3,30.4,30.23,East,88,5.0,9.0,79,0.00,,,0.00,0,Wunderground v.1.15,2013-02-07 03:03:00,
2013-02-06 22:08:00,36.1,30.2,30.23,ENE,67,2.0,9.0,79,0.00,,,0.00,0,Wunderground v.1.15,2013-02-07 03:08:00,
2013-02-06 22:13:00,36.0,30.1,30.23,ESE,122,5.0,9.0,79,0.00,,,0.00,0,Wunderground v.1.15,2013-02-07 03:13:00,
2013-02-06 22:18:00,35.9,30.3,30.23,SE,128,5.0,9.0,80,0.00,,,0.00,0,Wunderground v.1.15,2013-02-07 03:18:00,
2013-02-06 22:23:00,35.8,30.2,30.23,ESE,115,3.0,7.0,80,0.00,,,0.00,0,Wunderground v.1.15,2013-02-07 03:23:00,
2013-02-06 22:28:00,35.7,30.1,30.23,ESE,107,3.0,8.0,80,0.00,,,0.00,0,Wunderground v.1.15,2013-02-07 03:28:00,
2013-02-06 22:33:00,35.5,29.9,30.23,ESE,119,5.0,7.0,80,0.00,,,0.00,0,Wunderground v.1.15,2013-02-07 03:33:00,
2013-02-06 22:38:00,35.5,29.9,30.23,ESE,116,4.0,8.0,80,0.00,,,0.00,0,Wunderground v.1.15,2013-02-07 03:38:00,
2013-02-06 22:43:00,35.6,30.0,30.22,ESE,123,3.0,7.0,80,0.00,,,0.00,0,Wunderground v.1.15,2013-02-07 03:43:00,
2013-02-06 22:48:00,35.5,30.2,30.22,ESE,113,3.0,7.0,81,0.00,,,0.00,0,Wunderground v.1.15,2013-02-07 03:48:00,
2013-02-06 22:53:00,35.5,30.2,30.22,ESE,117,3.0,5.0,81,0.00,,,0.00,0,Wunderground v.1.15,2013-02-07 03:53:00,
2013-02-06 22:58:00,35.5,30.2,30.22,ESE,115,3.0,5.0,81,0.00,,,0.00,0,Wunderground v.1.15,2013-02-07 03:58:00,
2013-02-06 23:03:00,35.6,30.3,30.22,SE,128,2.0,5.0,81,0.00,,,0.00,0,Wunderground v.1.15,2013-02-07 04:03:00,
2013-02-06 23:08:00,35.7,30.1,30.22,ESE,121,2.0,5.0,80,0.00,,,0.00,0,Wunderground v.1.15,2013-02-07 04:08:00,
2013-02-06 23:13:00,35.6,30.3,30.21,ESE,105,2.0,4.0,81,0.00,,,0.00,0,Wunderground v.1.15,2013-02-07 04:13:00,
2013-02-06 23:18:00,35.6,30.3,30.21,East,82,2.0,5.0,81,0.00,,,0.00,0,Wunderground v.1.15,2013-02-07 04:18:00,
2013-02-06 23:23:00,35.6,30.3,30.21,East,87,3.0,4.0,81,0.00,,,0.00,0,Wunderground v.1.15,2013-02-07 04:23:00,
2013-02-06 23:28:00,35.6,30.3,30.21,East,89,2.0,5.0,81,0.00,,,0.00,0,Wunderground v.1.15,2013-02-07 04:28:00,
2013-02-06 23:33:00,35.6,30.3,30.20,ESE,107,1.0,4.0,81,0.00,,,0.00,0,Wunderground v.1.15,2013-02-07 04:33:00,
2013-02-06 23:38:00,35.5,30.2,30.20,ESE,107,1.0,4.0,81,0.00,,,0.00,0,Wunderground v.1.15,2013-02-07 04:38:00,
2013-02-06 23:43:00,35.7,30.4,30.20,East,90,3.0,5.0,81,0.00,,,0.00,0,Wunderground v.1.15,2013-02-07 04:43:00,
2013-02-06 23:48:00,35.6,30.3,30.20,ESE,109,2.0,5.0,81,0.00,,,0.00,0,Wunderground v.1.15,2013-02-07 04:48:00,
2013-02-06 23:53:00,35.6,30.3,30.20,SE,136,2.0,4.0,81,0.00,,,0.00,0,Wunderground v.1.15,2013-02-07 04:53:00,
2013-02-06 23:58:00,35.6,30.3,30.20,SE,138,1.0,4.0,81,0.00,,,0.00,0,Wunderground v.1.15,2013-02-07 04:58:00,